sensor_id;sensor_type;location;lat;lon;timestamp;pressure;altitude;pressure_sealevel;temperature;humidity
55550;BME280;41397;49.972;18.944;2022-07-06T00:03:48;102040.69;;;19.60;94.32
55550;BME280;41397;49.972;18.944;2022-07-06T00:09:03;102039.41;;;19.54;94.79
55550;BME280;41397;49.972;18.944;2022-07-06T00:14:17;102047.01;;;19.52;94.91
55550;BME280;41397;49.972;18.944;2022-07-06T00:19:30;102044.85;;;19.46;95.37
55550;BME280;41397;49.972;18.944;2022-07-06T00:19:56;102044.99;;;19.44;95.31
55550;BME280;41397;49.972;18.944;2022-07-06T00:24:44;102036.56;;;19.36;96.01
55550;BME280;41397;49.972;18.944;2022-07-06T00:29:58;102042.12;;;19.36;95.87
55550;BME280;41397;49.972;18.944;2022-07-06T00:35:11;102047.84;;;19.35;96.20
55550;BME280;41397;49.972;18.944;2022-07-06T00:40:25;102048.53;;;19.37;96.05
55550;BME280;41397;49.972;18.944;2022-07-06T00:45:39;102051.79;;;19.32;96.28
55550;BME280;41397;49.972;18.944;2022-07-06T00:50:13;102066.10;;;19.27;96.65
55550;BME280;41397;49.972;18.944;2022-07-06T00:50:52;102070.23;;;19.23;96.71
55550;BME280;41397;49.972;18.944;2022-07-06T00:56:06;102070.05;;;19.25;96.75
55550;BME280;41397;49.972;18.944;2022-07-06T01:01:21;102062.47;;;19.27;96.35
55550;BME280;41397;49.972;18.944;2022-07-06T01:06:35;102052.24;;;19.27;96.14
55550;BME280;41397;49.972;18.944;2022-07-06T01:11:48;102045.82;;;19.27;96.24
55550;BME280;41397;49.972;18.944;2022-07-06T01:17:05;102051.37;;;19.27;95.89
55550;BME280;41397;49.972;18.944;2022-07-06T01:20:35;102049.20;;;19.21;95.85
55550;BME280;41397;49.972;18.944;2022-07-06T01:22:21;102052.99;;;19.20;95.83
55550;BME280;41397;49.972;18.944;2022-07-06T01:27:36;102054.76;;;19.21;95.76
55550;BME280;41397;49.972;18.944;2022-07-06T01:32:51;102049.04;;;19.22;95.56
55550;BME280;41397;49.972;18.944;2022-07-06T01:38:05;102054.45;;;19.24;95.14
55550;BME280;41397;49.972;18.944;2022-07-06T01:43:19;102053.72;;;19.22;94.92
55550;BME280;41397;49.972;18.944;2022-07-06T01:48:33;102059.41;;;19.20;94.48
55550;BME280;41397;49.972;18.944;2022-07-06T01:50:49;102065.27;;;19.17;94.64
55550;BME280;41397;49.972;18.944;2022-07-06T01:53:46;102067.89;;;19.19;94.28
55550;BME280;41397;49.972;18.944;2022-07-06T01:59:00;102061.31;;;19.20;94.15
55550;BME280;41397;49.972;18.944;2022-07-06T02:04:14;102056.80;;;19.19;93.79
55550;BME280;41397;49.972;18.944;2022-07-06T02:09:28;102053.72;;;19.22;93.43
55550;BME280;41397;49.972;18.944;2022-07-06T02:14:41;102047.00;;;19.24;92.89
55550;BME280;41397;49.972;18.944;2022-07-06T02:19:55;102046.70;;;19.18;92.76
55550;BME280;41397;49.972;18.944;2022-07-06T02:21:04;102050.53;;;19.17;92.58
55550;BME280;41397;49.972;18.944;2022-07-06T02:25:09;102049.35;;;19.19;92.09
55550;BME280;41397;49.972;18.944;2022-07-06T02:30:22;102028.02;;;19.20;91.83
55550;BME280;41397;49.972;18.944;2022-07-06T02:35:36;102046.16;;;19.14;91.78
55550;BME280;41397;49.972;18.944;2022-07-06T02:40:57;102062.06;;;19.12;91.48
55550;BME280;41397;49.972;18.944;2022-07-06T02:46:12;102068.78;;;19.10;91.17
55550;BME280;41397;49.972;18.944;2022-07-06T02:51:18;102078.00;;;19.10;91.06
55550;BME280;41397;49.972;18.944;2022-07-06T02:51:31;102078.14;;;19.08;91.11
55550;BME280;41397;49.972;18.944;2022-07-06T02:56:45;102088.80;;;19.03;91.43
55550;BME280;41397;49.972;18.944;2022-07-06T03:02:06;102097.13;;;19.03;91.58
55550;BME280;41397;49.972;18.944;2022-07-06T03:07:20;102089.68;;;19.04;92.26
55550;BME280;41397;49.972;18.944;2022-07-06T03:12:34;102088.67;;;19.05;92.05
55550;BME280;41397;49.972;18.944;2022-07-06T03:17:47;102104.57;;;19.03;92.62
55550;BME280;41397;49.972;18.944;2022-07-06T03:21:32;102105.62;;;19.02;92.45
55550;BME280;41397;49.972;18.944;2022-07-06T03:23:01;102107.35;;;19.03;92.51
55550;BME280;41397;49.972;18.944;2022-07-06T03:28:15;102097.86;;;19.05;92.47
55550;BME280;41397;49.972;18.944;2022-07-06T03:33:28;102091.28;;;19.06;92.65
55550;BME280;41397;49.972;18.944;2022-07-06T03:38:42;102095.39;;;19.02;92.38
55550;BME280;41397;49.972;18.944;2022-07-06T03:43:56;102106.04;;;19.07;92.25
55550;BME280;41397;49.972;18.944;2022-07-06T03:49:09;102112.59;;;19.06;92.44
55550;BME280;41397;49.972;18.944;2022-07-06T03:51:45;102121.64;;;19.08;92.56
55550;BME280;41397;49.972;18.944;2022-07-06T03:54:23;102117.70;;;19.11;92.06
55550;BME280;41397;49.972;18.944;2022-07-06T03:59:37;102109.21;;;19.12;91.90
55550;BME280;41397;49.972;18.944;2022-07-06T04:04:50;102119.00;;;19.16;91.64
55550;BME280;41397;49.972;18.944;2022-07-06T04:10:07;102131.01;;;19.07;91.42
55550;BME280;41397;49.972;18.944;2022-07-06T04:15:22;102130.54;;;19.12;91.75
55550;BME280;41397;49.972;18.944;2022-07-06T04:20:39;102132.74;;;19.08;91.23
55550;BME280;41397;49.972;18.944;2022-07-06T04:21:59;102133.78;;;19.07;91.02
55550;BME280;41397;49.972;18.944;2022-07-06T04:25:53;102138.72;;;19.03;90.60
55550;BME280;41397;49.972;18.944;2022-07-06T04:31:07;102149.38;;;18.98;90.67
55550;BME280;41397;49.972;18.944;2022-07-06T04:36:20;102149.55;;;18.87;90.91
55550;BME280;41397;49.972;18.944;2022-07-06T04:41:34;102165.75;;;18.82;91.33
55550;BME280;41397;49.972;18.944;2022-07-06T04:46:47;102162.98;;;18.82;91.33
55550;BME280;41397;49.972;18.944;2022-07-06T04:52:01;102161.83;;;18.75;91.49
55550;BME280;41397;49.972;18.944;2022-07-06T04:52:15;102161.83;;;18.75;91.47
55550;BME280;41397;49.972;18.944;2022-07-06T04:57:15;102161.05;;;18.73;91.24
55550;BME280;41397;49.972;18.944;2022-07-06T05:02:29;102164.57;;;18.84;90.93
55550;BME280;41397;49.972;18.944;2022-07-06T05:07:42;102156.86;;;18.88;91.08
55550;BME280;41397;49.972;18.944;2022-07-06T05:12:56;102160.94;;;18.94;91.21
55550;BME280;41397;49.972;18.944;2022-07-06T05:18:10;102164.72;;;19.02;90.81
55550;BME280;41397;49.972;18.944;2022-07-06T05:22:29;102158.44;;;19.10;90.77
55550;BME280;41397;49.972;18.944;2022-07-06T05:23:23;102163.81;;;19.12;90.39
55550;BME280;41397;49.972;18.944;2022-07-06T05:28:37;102149.65;;;19.24;90.17
55550;BME280;41397;49.972;18.944;2022-07-06T05:33:50;102163.46;;;19.34;89.10
55550;BME280;41397;49.972;18.944;2022-07-06T05:39:06;102161.55;;;19.44;89.13
55550;BME280;41397;49.972;18.944;2022-07-06T05:44:20;102158.58;;;19.56;89.55
55550;BME280;41397;49.972;18.944;2022-07-06T05:49:34;102165.75;;;19.68;88.08
55550;BME280;41397;49.972;18.944;2022-07-06T05:52:44;102173.12;;;19.87;90.32
55550;BME280;41397;49.972;18.944;2022-07-06T05:54:59;102172.73;;;20.00;89.66
55550;BME280;41397;49.972;18.944;2022-07-06T06:00:13;102178.45;;;20.26;88.15
55550;BME280;41397;49.972;18.944;2022-07-06T06:05:27;102180.68;;;20.40;87.89
55550;BME280;41397;49.972;18.944;2022-07-06T06:10:40;102188.31;;;20.66;86.85
55550;BME280;41397;49.972;18.944;2022-07-06T06:15:54;102200.93;;;20.78;84.42
55550;BME280;41397;49.972;18.944;2022-07-06T06:21:08;102203.96;;;20.84;83.72
55550;BME280;41397;49.972;18.944;2022-07-06T06:23:04;102208.48;;;20.86;83.59
55550;BME280;41397;49.972;18.944;2022-07-06T06:26:22;102217.87;;;20.84;82.71
55550;BME280;41397;49.972;18.944;2022-07-06T06:31:36;102216.09;;;20.83;82.84
55550;BME280;41397;49.972;18.944;2022-07-06T06:36:50;102225.87;;;20.70;81.59
55550;BME280;41397;49.972;18.944;2022-07-06T06:42:04;102237.09;;;20.50;81.54
55550;BME280;41397;49.972;18.944;2022-07-06T06:47:18;102244.05;;;20.36;82.62
55550;BME280;41397;49.972;18.944;2022-07-06T06:52:33;102233.78;;;20.19;82.89
55550;BME280;41397;49.972;18.944;2022-07-06T06:53:18;102242.11;;;20.19;83.08
55550;BME280;41397;49.972;18.944;2022-07-06T06:57:48;102230.83;;;20.21;83.12
55550;BME280;41397;49.972;18.944;2022-07-06T07:03:05;102235.66;;;20.18;83.24
55550;BME280;41397;49.972;18.944;2022-07-06T07:08:23;102219.45;;;20.42;84.28
55550;BME280;41397;49.972;18.944;2022-07-06T07:13:40;102228.73;;;20.78;83.96
55550;BME280;41397;49.972;18.944;2022-07-06T07:18:57;102234.38;;;20.86;81.89
55550;BME280;41397;49.972;18.944;2022-07-06T07:23:31;102231.52;;;20.60;79.66
55550;BME280;41397;49.972;18.944;2022-07-06T07:24:10;102236.17;;;20.59;78.97
55550;BME280;41397;49.972;18.944;2022-07-06T07:29:25;102247.03;;;20.53;79.43
55550;BME280;41397;49.972;18.944;2022-07-06T07:34:38;102264.38;;;20.37;79.30
55550;BME280;41397;49.972;18.944;2022-07-06T07:39:52;102268.52;;;20.33;79.29
55550;BME280;41397;49.972;18.944;2022-07-06T07:45:07;102276.77;;;20.15;79.06
55550;BME280;41397;49.972;18.944;2022-07-06T07:50:21;102291.22;;;20.18;79.39
55550;BME280;41397;49.972;18.944;2022-07-06T07:53:45;102298.13;;;20.14;78.92
55550;BME280;41397;49.972;18.944;2022-07-06T07:55:35;102288.74;;;20.15;78.74
55550;BME280;41397;49.972;18.944;2022-07-06T08:00:49;102282.20;;;20.16;79.05
55550;BME280;41397;49.972;18.944;2022-07-06T08:06:02;102282.27;;;20.62;79.38
55550;BME280;41397;49.972;18.944;2022-07-06T08:11:16;102285.34;;;21.04;75.75
55550;BME280;41397;49.972;18.944;2022-07-06T08:16:31;102285.75;;;21.45;74.37
55550;BME280;41397;49.972;18.944;2022-07-06T08:21:45;102283.36;;;21.77;71.20
55550;BME280;41397;49.972;18.944;2022-07-06T08:23:59;102286.20;;;21.85;71.36
55550;BME280;41397;49.972;18.944;2022-07-06T08:26:58;102285.51;;;21.83;69.27
55550;BME280;41397;49.972;18.944;2022-07-06T08:32:12;102286.76;;;21.88;68.76
55550;BME280;41397;49.972;18.944;2022-07-06T08:37:26;102286.86;;;22.05;68.76
55550;BME280;41397;49.972;18.944;2022-07-06T08:42:42;102278.21;;;22.16;67.65
55550;BME280;41397;49.972;18.944;2022-07-06T08:48:04;102277.61;;;22.30;68.14
55550;BME280;41397;49.972;18.944;2022-07-06T08:53:18;102276.16;;;22.60;68.44
55550;BME280;41397;49.972;18.944;2022-07-06T08:54:14;102276.84;;;22.54;67.50
55550;BME280;41397;49.972;18.944;2022-07-06T09:09:40;102261.83;;;23.06;66.30
55550;BME280;41397;49.972;18.944;2022-07-06T09:14:55;102260.98;;;23.22;65.27
55550;BME280;41397;49.972;18.944;2022-07-06T09:24:28;102259.05;;;23.39;65.56
55550;BME280;41397;49.972;18.944;2022-07-06T09:26:03;102258.69;;;23.50;65.93
55550;BME280;41397;49.972;18.944;2022-07-06T09:31:17;102267.56;;;23.86;64.34
55550;BME280;41397;49.972;18.944;2022-07-06T09:54:42;102263.18;;;23.92;62.16
55550;BME280;41397;49.972;18.944;2022-07-06T09:55:00;102258.46;;;23.92;62.09
55550;BME280;41397;49.972;18.944;2022-07-06T10:00:19;102252.22;;;24.30;61.25
55550;BME280;41397;49.972;18.944;2022-07-06T10:05:42;102249.89;;;24.81;61.87
55550;BME280;41397;49.972;18.944;2022-07-06T10:11:09;102256.78;;;25.24;58.21
55550;BME280;41397;49.972;18.944;2022-07-06T10:16:39;102256.36;;;25.51;55.54
55550;BME280;41397;49.972;18.944;2022-07-06T10:22:17;102257.28;;;25.81;54.52
55550;BME280;41397;49.972;18.944;2022-07-06T10:25:05;102253.83;;;25.79;54.29
55550;BME280;41397;49.972;18.944;2022-07-06T10:27:48;102247.09;;;25.88;54.59
55550;BME280;41397;49.972;18.944;2022-07-06T10:33:07;102242.16;;;26.05;55.78
55550;BME280;41397;49.972;18.944;2022-07-06T10:44:26;102235.63;;;26.49;52.06
55550;BME280;41397;49.972;18.944;2022-07-06T10:49:48;102237.41;;;26.86;52.70
55550;BME280;41397;49.972;18.944;2022-07-06T10:55:03;102242.16;;;26.86;51.22
55550;BME280;41397;49.972;18.944;2022-07-06T10:55:35;102245.38;;;26.83;50.95
55550;BME280;41397;49.972;18.944;2022-07-06T11:00:18;102257.70;;;26.67;51.42
55550;BME280;41397;49.972;18.944;2022-07-06T11:05:40;102253.53;;;26.63;51.79
55550;BME280;41397;49.972;18.944;2022-07-06T11:41:31;102276.74;;;25.44;55.61
55550;BME280;41397;49.972;18.944;2022-07-06T11:46:45;102277.73;;;25.29;56.76
55550;BME280;41397;49.972;18.944;2022-07-06T11:51:58;102279.02;;;24.95;57.11
55550;BME280;41397;49.972;18.944;2022-07-06T11:56:58;102285.78;;;24.77;58.47
55550;BME280;41397;49.972;18.944;2022-07-06T11:57:12;102287.88;;;24.75;58.88
55550;BME280;41397;49.972;18.944;2022-07-06T12:45:44;102259.92;;;25.44;53.10
55550;BME280;41397;49.972;18.944;2022-07-06T14:28:57;102176.30;;;25.71;46.77
55550;BME280;41397;49.972;18.944;2022-07-06T14:32:46;102171.77;;;25.70;47.58
55550;BME280;41397;49.972;18.944;2022-07-06T14:34:10;102164.88;;;25.73;47.50
55550;BME280;41397;49.972;18.944;2022-07-06T14:39:47;102157.15;;;25.75;48.81
55550;BME280;41397;49.972;18.944;2022-07-06T14:45:55;102159.45;;;25.56;47.25
55550;BME280;41397;49.972;18.944;2022-07-06T14:51:21;102152.99;;;25.56;47.48
55550;BME280;41397;49.972;18.944;2022-07-06T14:56:57;102149.13;;;25.72;47.30
55550;BME280;41397;49.972;18.944;2022-07-06T15:02:11;102140.33;;;25.75;45.08
55550;BME280;41397;49.972;18.944;2022-07-06T15:03:00;102137.14;;;25.78;45.71
55550;BME280;41397;49.972;18.944;2022-07-06T15:07:25;102149.18;;;25.86;45.35
55550;BME280;41397;49.972;18.944;2022-07-06T15:12:38;102147.70;;;25.76;45.33
55550;BME280;41397;49.972;18.944;2022-07-06T15:17:52;102138.22;;;25.77;44.89
55550;BME280;41397;49.972;18.944;2022-07-06T15:23:06;102147.70;;;25.76;45.12
55550;BME280;41397;49.972;18.944;2022-07-06T15:28:20;102142.09;;;25.76;44.58
55550;BME280;41397;49.972;18.944;2022-07-06T15:33:13;102136.84;;;25.73;43.93
55550;BME280;41397;49.972;18.944;2022-07-06T15:33:34;102141.41;;;25.74;44.02
55550;BME280;41397;49.972;18.944;2022-07-06T15:38:47;102143.35;;;25.73;43.57
55550;BME280;41397;49.972;18.944;2022-07-06T15:44:01;102138.32;;;25.68;43.93
55550;BME280;41397;49.972;18.944;2022-07-06T15:49:15;102133.79;;;25.67;44.66
55550;BME280;41397;49.972;18.944;2022-07-06T15:54:31;102154.32;;;25.30;47.12
55550;BME280;41397;49.972;18.944;2022-07-06T15:59:44;102163.79;;;25.06;48.15
55550;BME280;41397;49.972;18.944;2022-07-06T16:03:27;102162.86;;;24.91;49.00
55550;BME280;41397;49.972;18.944;2022-07-06T16:04:58;102159.53;;;24.72;48.97
55550;BME280;41397;49.972;18.944;2022-07-06T16:10:12;102177.35;;;24.48;49.65
55550;BME280;41397;49.972;18.944;2022-07-06T16:15:28;102181.45;;;24.29;50.69
55550;BME280;41397;49.972;18.944;2022-07-06T16:20:45;102175.57;;;24.16;50.76
55550;BME280;41397;49.972;18.944;2022-07-06T16:25:59;102191.71;;;23.98;50.88
55550;BME280;41397;49.972;18.944;2022-07-06T16:31:12;102185.12;;;23.90;51.16
55550;BME280;41397;49.972;18.944;2022-07-06T16:33:41;102195.23;;;23.91;50.94
55550;BME280;41397;49.972;18.944;2022-07-06T16:36:28;102201.95;;;23.74;51.57
55550;BME280;41397;49.972;18.944;2022-07-06T16:41:42;102210.30;;;23.66;51.21
55550;BME280;41397;49.972;18.944;2022-07-06T16:46:56;102208.75;;;23.55;51.44
55550;BME280;41397;49.972;18.944;2022-07-06T16:52:10;102200.75;;;23.44;51.89
55550;BME280;41397;49.972;18.944;2022-07-06T16:57:24;102197.97;;;23.36;51.89
55550;BME280;41397;49.972;18.944;2022-07-06T17:02:37;102206.16;;;23.29;52.16
55550;BME280;41397;49.972;18.944;2022-07-06T17:03:55;102201.99;;;23.25;52.35
55550;BME280;41397;49.972;18.944;2022-07-06T17:07:51;102212.45;;;23.31;52.52
55550;BME280;41397;49.972;18.944;2022-07-06T17:13:05;102214.03;;;23.17;51.49
55550;BME280;41397;49.972;18.944;2022-07-06T17:18:18;102204.95;;;23.23;51.75
55550;BME280;41397;49.972;18.944;2022-07-06T17:23:32;102207.74;;;23.15;51.28
55550;BME280;41397;49.972;18.944;2022-07-06T17:28:46;102213.16;;;23.00;51.87
55550;BME280;41397;49.972;18.944;2022-07-06T17:33:59;102209.27;;;22.93;51.91
55550;BME280;41397;49.972;18.944;2022-07-06T17:34:19;102218.70;;;22.92;52.03
55550;BME280;41397;49.972;18.944;2022-07-06T17:39:19;102208.44;;;23.01;51.72
55550;BME280;41397;49.972;18.944;2022-07-06T17:44:38;102212.61;;;22.97;51.94
55550;BME280;41397;49.972;18.944;2022-07-06T18:40:43;102232.01;;;22.48;54.61
55550;BME280;41397;49.972;18.944;2022-07-06T20:15:00;102288.88;;;22.21;58.94
55550;BME280;41397;49.972;18.944;2022-07-06T20:26:00;102281.67;;;22.10;59.11
55550;BME280;41397;49.972;18.944;2022-07-06T20:31:25;102284.41;;;22.02;59.59
55550;BME280;41397;49.972;18.944;2022-07-06T20:36:44;102285.91;;;21.96;60.13
55550;BME280;41397;49.972;18.944;2022-07-06T20:37:50;102291.48;;;21.96;60.21
55550;BME280;41397;49.972;18.944;2022-07-06T20:41:58;102297.40;;;21.93;60.58
55550;BME280;41397;49.972;18.944;2022-07-06T20:47:12;102296.95;;;21.80;61.37
55550;BME280;41397;49.972;18.944;2022-07-06T20:52:26;102282.42;;;21.68;62.12
55550;BME280;41397;49.972;18.944;2022-07-06T20:57:40;102290.78;;;21.68;62.48
55550;BME280;41397;49.972;18.944;2022-07-06T21:02:53;102296.68;;;21.65;63.64
55550;BME280;41397;49.972;18.944;2022-07-06T21:08:05;102281.71;;;21.66;63.85
55550;BME280;41397;49.972;18.944;2022-07-06T21:08:18;102288.33;;;21.65;63.90
55550;BME280;41397;49.972;18.944;2022-07-06T21:13:32;102284.68;;;21.64;64.15
55550;BME280;41397;49.972;18.944;2022-07-06T21:18:46;102278.24;;;21.64;64.41
55550;BME280;41397;49.972;18.944;2022-07-06T21:24:00;102284.13;;;21.61;64.88
55550;BME280;41397;49.972;18.944;2022-07-06T21:29:14;102276.91;;;21.50;65.33
55550;BME280;41397;49.972;18.944;2022-07-06T21:34:28;102275.55;;;21.36;65.65
55550;BME280;41397;49.972;18.944;2022-07-06T21:38:19;102276.68;;;21.25;66.40
55550;BME280;41397;49.972;18.944;2022-07-06T21:39:42;102280.25;;;21.18;66.52
55550;BME280;41397;49.972;18.944;2022-07-06T21:44:57;102282.88;;;21.01;67.20
55550;BME280;41397;49.972;18.944;2022-07-06T21:50:11;102282.80;;;20.93;67.50
55550;BME280;41397;49.972;18.944;2022-07-06T21:55:25;102285.89;;;20.90;67.78
55550;BME280;41397;49.972;18.944;2022-07-06T22:00:38;102284.12;;;20.89;67.86
55550;BME280;41397;49.972;18.944;2022-07-06T22:05:52;102282.39;;;20.88;68.36
55550;BME280;41397;49.972;18.944;2022-07-06T22:08:33;102278.01;;;20.86;68.79
55550;BME280;41397;49.972;18.944;2022-07-06T22:11:06;102281.66;;;20.86;68.73
55550;BME280;41397;49.972;18.944;2022-07-06T22:16:20;102288.59;;;20.82;68.97
55550;BME280;41397;49.972;18.944;2022-07-06T22:24:13;102288.01;;;20.78;69.15
55550;BME280;41397;49.972;18.944;2022-07-06T22:29:27;102287.13;;;20.78;69.09
55550;BME280;41397;49.972;18.944;2022-07-06T22:34:41;102282.35;;;20.70;69.60
55550;BME280;41397;49.972;18.944;2022-07-06T22:39:54;102272.17;;;20.61;69.49
55550;BME280;41397;49.972;18.944;2022-07-06T22:45:20;102276.02;;;20.50;69.50
55550;BME280;41397;49.972;18.944;2022-07-06T22:49:13;102271.95;;;20.45;70.09
55550;BME280;41397;49.972;18.944;2022-07-06T22:50:33;102274.88;;;20.43;69.96
55550;BME280;41397;49.972;18.944;2022-07-06T22:55:47;102270.25;;;20.34;70.28
55550;BME280;41397;49.972;18.944;2022-07-06T23:01:01;102266.31;;;20.27;70.54
55550;BME280;41397;49.972;18.944;2022-07-06T23:06:22;102276.33;;;20.20;71.38
55550;BME280;41397;49.972;18.944;2022-07-06T23:11:36;102277.08;;;20.12;71.90
55550;BME280;41397;49.972;18.944;2022-07-06T23:16:49;102273.02;;;20.06;71.89
55550;BME280;41397;49.972;18.944;2022-07-06T23:19:30;102268.77;;;20.02;72.28
55550;BME280;41397;49.972;18.944;2022-07-06T23:22:06;102268.38;;;19.97;73.15
55550;BME280;41397;49.972;18.944;2022-07-06T23:27:20;102272.34;;;19.94;73.44
55550;BME280;41397;49.972;18.944;2022-07-06T23:32:34;102273.20;;;19.95;73.75
55550;BME280;41397;49.972;18.944;2022-07-06T23:37:48;102275.50;;;20.00;73.24
55550;BME280;41397;49.972;18.944;2022-07-06T23:43:02;102265.61;;;19.97;73.08
55550;BME280;41397;49.972;18.944;2022-07-06T23:48:15;102265.75;;;19.95;72.88
55550;BME280;41397;49.972;18.944;2022-07-06T23:49:50;102265.61;;;19.97;72.36
55550;BME280;41397;49.972;18.944;2022-07-06T23:53:29;102265.19;;;19.92;72.24
55550;BME280;41397;49.972;18.944;2022-07-06T23:58:42;102255.26;;;19.80;72.30
